createdAt,value
2022-12-05T00:00:47.031Z,43.20
2022-12-05T00:05:51.935Z,44.83
2022-12-05T00:10:57.998Z,43.90
2022-12-05T00:16:03.293Z,44.17
2022-12-05T00:21:10.989Z,43.77
2022-12-05T00:26:16.021Z,44.10
2022-12-05T00:31:25.801Z,45.63
2022-12-05T00:36:33.329Z,43.60
2022-12-05T00:41:38.764Z,43.13
2022-12-05T00:46:45.511Z,43.57
2022-12-05T00:51:50.858Z,44.70
2022-12-05T00:56:57.604Z,44.43
2022-12-05T01:02:03.122Z,44.10
2022-12-05T01:07:08.599Z,45.33
2022-12-05T01:12:14.809Z,44.90
2022-12-05T01:17:19.800Z,45.17
2022-12-05T01:22:25.404Z,44.75
2022-12-05T01:27:30.965Z,46.00
2022-12-05T01:32:36.499Z,46.17
2022-12-05T01:37:41.999Z,45.37
2022-12-05T01:42:47.323Z,45.70
2022-12-05T01:47:52.479Z,45.10
2022-12-05T01:52:57.922Z,45.57
2022-12-05T01:58:04.256Z,44.70
2022-12-05T02:03:11.938Z,44.00
2022-12-05T02:08:17.555Z,45.30
2022-12-05T02:13:40.882Z,43.23
2022-12-05T02:18:57.305Z,44.10
2022-12-05T02:24:29.328Z,43.03
2022-12-05T02:30:03.637Z,42.90
2022-12-05T02:35:20.620Z,41.83
2022-12-05T02:40:28.999Z,43.30
2022-12-05T02:45:36.749Z,42.97
2022-12-05T02:50:44.002Z,44.60
2022-12-05T02:55:50.204Z,43.50
2022-12-05T03:00:59.594Z,42.58
2022-12-05T03:06:17.433Z,43.40
2022-12-05T03:11:23.359Z,43.98
2022-12-05T03:16:32.134Z,44.00
2022-12-05T03:21:57.645Z,43.20
2022-12-05T03:27:08.181Z,44.23
2022-12-05T03:32:35.935Z,43.67
2022-12-05T03:37:53.026Z,44.03
2022-12-05T03:43:05.615Z,44.00
2022-12-05T03:48:28.756Z,43.97
2022-12-05T03:53:37.158Z,43.20
2022-12-05T03:58:47.984Z,43.57
2022-12-05T04:03:56.320Z,44.17
2022-12-05T04:09:09.171Z,43.77
2022-12-05T04:14:18.591Z,43.60
2022-12-05T04:20:07.515Z,43.80
2022-12-05T04:25:31.871Z,42.50
2022-12-05T04:30:45.966Z,43.27
2022-12-05T04:36:06.392Z,43.27
2022-12-05T04:41:14.763Z,42.87
2022-12-05T04:46:22.052Z,42.70
2022-12-05T04:51:31.251Z,43.10
2022-12-05T04:56:39.229Z,43.27
2022-12-05T05:01:53.406Z,42.50
2022-12-05T05:06:58.278Z,43.30
2022-12-05T05:12:03.214Z,42.67
2022-12-05T05:17:08.688Z,42.63
2022-12-05T05:22:15.432Z,48.40
2022-12-05T05:27:20.513Z,42.70
2022-12-05T05:32:25.720Z,43.20
2022-12-05T05:37:32.667Z,42.03
2022-12-05T05:42:37.622Z,42.87
2022-12-05T05:47:43.605Z,42.60
2022-12-05T05:52:49.063Z,41.65
2022-12-05T05:57:54.245Z,42.57
2022-12-05T06:02:59.403Z,42.70
2022-12-05T06:08:05.026Z,42.40
2022-12-05T06:13:09.906Z,42.63
2022-12-05T06:18:15.885Z,42.45
2022-12-05T06:23:21.312Z,43.13
2022-12-05T06:28:27.681Z,44.77
2022-12-05T06:33:33.048Z,43.08
2022-12-05T06:38:42.093Z,43.43
2022-12-05T06:43:45.697Z,42.20
2022-12-05T06:48:53.377Z,42.23
2022-12-05T06:53:58.549Z,43.50
2022-12-05T06:59:03.466Z,42.77
2022-12-05T07:04:14.165Z,41.77
2022-12-05T07:09:21.610Z,42.30
2022-12-05T07:19:34.876Z,42.27
2022-12-05T07:24:39.891Z,42.30
2022-12-05T07:29:45.228Z,43.30
2022-12-05T07:34:54.950Z,42.87
2022-12-05T07:39:57.654Z,42.13
2022-12-05T07:45:03.054Z,43.38
2022-12-05T07:50:08.939Z,43.43
2022-12-05T07:55:15.326Z,44.00
2022-12-05T08:00:22.598Z,43.73
2022-12-05T08:05:28.161Z,43.68
2022-12-05T08:10:35.200Z,43.87
2022-12-05T08:15:40.221Z,43.77
2022-12-05T08:20:45.281Z,44.83
2022-12-05T08:25:50.196Z,44.43
2022-12-05T08:30:55.867Z,45.10
2022-12-05T08:36:05.833Z,45.50
2022-12-05T08:41:14.645Z,45.50
2022-12-05T08:46:19.570Z,46.33
2022-12-05T08:51:24.939Z,46.33
2022-12-05T08:56:30.090Z,45.73
2022-12-05T09:01:39.152Z,48.07
2022-12-05T09:06:45.029Z,47.80
2022-12-05T09:11:50.952Z,51.97
2022-12-05T09:16:56.085Z,50.83
2022-12-05T09:22:01.050Z,48.50
2022-12-05T09:27:06.376Z,46.33
2022-12-05T09:32:12.487Z,45.67
2022-12-05T09:37:38.118Z,44.40
2022-12-05T09:42:52.003Z,45.33
2022-12-05T09:48:09.656Z,45.85
2022-12-05T09:53:32.378Z,46.70
2022-12-05T09:58:47.762Z,47.63
2022-12-05T10:04:05.282Z,47.13
2022-12-05T10:09:15.762Z,47.00
2022-12-05T10:14:35.330Z,45.63
2022-12-05T10:19:43.360Z,45.03
2022-12-05T10:24:51.542Z,47.37
2022-12-05T10:30:03.078Z,45.90
2022-12-05T10:35:28.580Z,45.47
2022-12-05T10:40:42.784Z,49.60
2022-12-05T10:45:49.617Z,49.83
2022-12-05T10:50:58.363Z,47.77
2022-12-05T11:01:13.347Z,48.57
2022-12-05T11:06:21.519Z,47.77
2022-12-05T11:11:33.360Z,47.90
2022-12-05T11:16:40.366Z,46.43
2022-12-05T11:21:45.985Z,45.67
2022-12-05T11:26:51.677Z,46.98
2022-12-05T11:31:57.978Z,45.55
2022-12-05T11:37:17.796Z,44.90
2022-12-05T11:42:37.920Z,46.25
2022-12-05T11:48:00.862Z,45.20
2022-12-05T11:53:23.943Z,47.17
2022-12-05T11:58:40.553Z,48.00
2022-12-05T12:03:54.419Z,47.00
2022-12-05T12:09:15.749Z,49.03
2022-12-05T12:14:50.706Z,48.40
2022-12-05T12:20:35.357Z,47.83
2022-12-05T12:25:52.813Z,50.57
2022-12-05T12:31:27.987Z,48.43
2022-12-05T12:36:55.852Z,49.43
2022-12-05T12:42:09.867Z,48.47
2022-12-05T12:47:41.347Z,47.53
2022-12-05T12:52:55.716Z,46.87
2022-12-05T12:58:19.556Z,46.97
2022-12-05T13:03:51.190Z,46.37
2022-12-05T13:08:55.680Z,47.40
2022-12-05T13:14:03.159Z,46.37
2022-12-05T13:19:09.867Z,47.17
2022-12-05T13:24:19.078Z,46.62
2022-12-05T13:29:30.300Z,47.73
2022-12-05T13:34:47.840Z,50.67
2022-12-05T13:45:20.347Z,52.30
2022-12-05T13:50:46.502Z,51.80
2022-12-05T13:56:16.255Z,53.77
2022-12-05T14:01:32.267Z,55.60
2022-12-05T14:06:40.338Z,53.33
2022-12-05T14:12:14.441Z,55.20
2022-12-05T14:17:19.938Z,56.23
2022-12-05T14:22:44.843Z,55.65
2022-12-05T14:27:52.813Z,59.47
2022-12-05T14:33:01.173Z,58.17
2022-12-05T14:38:08.156Z,55.23
2022-12-05T14:43:22.989Z,52.27
2022-12-05T14:48:31.786Z,52.33
2022-12-05T14:53:43.468Z,56.00
2022-12-05T14:59:05.362Z,54.33
2022-12-05T15:04:19.530Z,53.93
2022-12-05T15:09:37.989Z,55.30
2022-12-05T15:15:04.439Z,56.53
2022-12-05T15:20:21.600Z,55.07
2022-12-05T15:25:30.363Z,56.23
2022-12-05T15:30:39.785Z,61.33
2022-12-05T15:35:47.557Z,54.53
2022-12-05T15:40:53.710Z,56.23
2022-12-05T15:46:22.663Z,56.37
2022-12-05T15:51:31.200Z,58.20
2022-12-05T15:56:45.369Z,55.73
2022-12-05T16:01:59.759Z,54.60
2022-12-05T16:07:10.458Z,55.80
2022-12-05T16:12:20.076Z,55.98
2022-12-05T16:17:26.488Z,55.95
2022-12-05T16:22:34.296Z,55.00
2022-12-05T16:27:40.160Z,54.83
2022-12-05T16:32:48.537Z,54.43
2022-12-05T16:37:57.018Z,55.38
2022-12-05T16:43:06.791Z,55.60
2022-12-05T16:48:27.395Z,56.80
2022-12-05T16:53:34.543Z,58.60
2022-12-05T16:58:41.493Z,59.37
2022-12-05T17:03:48.907Z,57.00
2022-12-05T17:08:55.831Z,53.55
2022-12-05T17:14:03.284Z,53.97
2022-12-05T17:24:20.890Z,56.83
2022-12-05T17:29:32.465Z,55.70
2022-12-05T17:34:34.246Z,56.80
2022-12-05T17:39:39.146Z,57.80
2022-12-05T17:44:45.480Z,62.60
2022-12-05T17:49:52.303Z,58.03
2022-12-05T17:54:58.876Z,59.13
2022-12-05T18:00:05.438Z,56.35
2022-12-05T18:05:12.699Z,55.92
2022-12-05T18:10:21.468Z,63.23
2022-12-05T18:15:27.768Z,59.67
2022-12-05T18:20:32.962Z,57.50
2022-12-05T18:25:38.308Z,56.87
2022-12-05T18:30:44.918Z,57.90
2022-12-05T18:35:52.696Z,58.87
2022-12-05T18:41:02.510Z,59.15
2022-12-05T18:46:08.555Z,62.03
2022-12-05T18:51:20.112Z,57.40
2022-12-05T18:56:29.760Z,56.77
2022-12-05T19:01:38.779Z,55.43
2022-12-05T19:06:52.346Z,56.70
2022-12-05T19:12:01.224Z,55.10
2022-12-05T19:17:07.015Z,56.47
2022-12-05T19:22:12.074Z,56.10
2022-12-05T19:27:17.248Z,55.60
2022-12-05T19:32:22.878Z,55.03
2022-12-05T19:37:30.384Z,59.10
2022-12-05T19:42:35.844Z,58.00
2022-12-05T19:47:40.987Z,58.00
2022-12-05T19:52:46.451Z,60.63
2022-12-05T19:57:52.026Z,57.63
2022-12-05T20:02:58.567Z,55.13
2022-12-05T20:08:05.260Z,55.43
2022-12-05T20:13:44.838Z,56.18
2022-12-05T20:18:17.992Z,56.17
2022-12-05T20:23:23.457Z,57.23
2022-12-05T20:28:29.472Z,56.77
2022-12-05T20:33:34.954Z,56.05
2022-12-05T20:38:40.867Z,54.63
2022-12-05T20:43:47.997Z,54.57
2022-12-05T20:48:53.620Z,58.77
2022-12-05T20:54:01.037Z,59.47
2022-12-05T20:59:09.468Z,62.73
2022-12-05T21:04:15.148Z,58.43
2022-12-05T21:09:26.421Z,63.00
2022-12-05T21:14:31.911Z,62.57
2022-12-05T21:19:36.778Z,61.73
2022-12-05T21:24:42.764Z,68.93
2022-12-05T21:29:47.706Z,62.53
2022-12-05T21:34:54.636Z,64.33
2022-12-05T21:40:00.552Z,63.90
2022-12-05T21:45:06.218Z,61.10
2022-12-05T21:50:12.517Z,60.93
2022-12-05T21:55:17.882Z,59.07
2022-12-05T22:00:23.163Z,59.37
2022-12-05T22:05:29.159Z,58.48
2022-12-05T22:10:35.906Z,56.18
2022-12-05T22:15:41.511Z,57.27
2022-12-05T22:20:46.583Z,59.30
2022-12-05T22:26:09.945Z,58.77
2022-12-05T22:31:17.849Z,59.13
2022-12-05T22:36:24.394Z,61.03
2022-12-05T22:41:30.828Z,60.23
2022-12-05T22:46:36.191Z,67.50
2022-12-05T22:51:41.578Z,71.53
2022-12-05T22:56:49.588Z,67.90
2022-12-05T23:01:55.213Z,77.70
2022-12-05T23:07:00.426Z,70.20
2022-12-05T23:12:05.994Z,67.30
2022-12-05T23:17:11.035Z,69.57
2022-12-05T23:22:16.463Z,66.17
2022-12-05T23:27:21.766Z,66.37
2022-12-05T23:32:27.119Z,62.90
2022-12-05T23:37:32.682Z,64.00
2022-12-05T23:42:38.318Z,68.63
2022-12-05T23:47:43.355Z,67.60
2022-12-05T23:52:48.543Z,67.33
2022-12-05T23:57:53.558Z,67.40
